createdAt,value
2018-12-30T00:00:22.417Z,5.50
2018-12-30T00:01:22.453Z,5.49
2018-12-30T00:02:22.388Z,5.55
2018-12-30T00:03:22.410Z,5.55
2018-12-30T00:04:22.372Z,5.55
2018-12-30T00:05:22.365Z,5.53
2018-12-30T00:06:22.359Z,5.52
2018-12-30T00:07:22.340Z,5.60
2018-12-30T00:08:22.349Z,5.48
2018-12-30T00:09:22.325Z,5.56
2018-12-30T00:10:22.331Z,5.55
2018-12-30T00:11:22.299Z,5.52
2018-12-30T00:12:22.277Z,5.56
2018-12-30T00:13:22.287Z,5.53
2018-12-30T00:14:22.264Z,5.59
2018-12-30T00:15:22.266Z,5.64
2018-12-30T00:16:22.259Z,5.59
2018-12-30T00:17:22.237Z,5.57
2018-12-30T00:18:22.253Z,5.57
2018-12-30T00:19:22.215Z,5.60
2018-12-30T00:20:22.217Z,5.59
2018-12-30T00:21:22.189Z,5.66
2018-12-30T00:22:22.188Z,5.57
2018-12-30T00:23:22.186Z,5.60
2018-12-30T00:24:22.150Z,5.67
2018-12-30T00:25:22.149Z,5.63
2018-12-30T00:26:22.128Z,5.66
2018-12-30T00:27:22.154Z,5.67
2018-12-30T00:28:22.135Z,5.71
2018-12-30T00:29:22.117Z,5.66
2018-12-30T00:30:22.092Z,5.73
2018-12-30T00:31:22.073Z,5.66
2018-12-30T00:32:22.063Z,5.70
2018-12-30T00:33:22.083Z,5.68
2018-12-30T00:34:22.045Z,5.64
2018-12-30T00:35:22.030Z,5.70
2018-12-30T00:36:22.022Z,5.75
2018-12-30T00:37:22.006Z,5.74
2018-12-30T00:38:22.030Z,5.74
2018-12-30T00:39:21.995Z,5.75
2018-12-30T00:40:21.985Z,5.74
2018-12-30T00:41:21.972Z,5.74
2018-12-30T00:42:21.974Z,5.75
2018-12-30T00:43:21.939Z,5.70
2018-12-30T00:44:21.954Z,5.85
2018-12-30T00:45:21.922Z,5.83
2018-12-30T00:46:21.916Z,5.88
2018-12-30T00:47:21.905Z,5.92
2018-12-30T00:48:21.910Z,5.88
2018-12-30T00:49:21.900Z,5.85
2018-12-30T00:50:21.859Z,5.96
2018-12-30T00:51:21.864Z,5.88
2018-12-30T00:52:21.853Z,5.88
2018-12-30T00:53:21.845Z,5.93
2018-12-30T00:54:21.853Z,6.01
2018-12-30T00:55:21.816Z,5.96
2018-12-30T00:56:21.807Z,5.96
2018-12-30T00:57:21.788Z,6.00
2018-12-30T00:58:21.780Z,5.98
2018-12-30T00:59:21.805Z,6.04
2018-12-30T01:00:21.765Z,6.03
2018-12-30T01:01:21.756Z,5.98
2018-12-30T01:02:21.741Z,6.01
2018-12-30T01:03:21.753Z,5.95
2018-12-30T01:04:21.716Z,6.03
2018-12-30T01:05:21.743Z,6.01
2018-12-30T01:06:21.706Z,6.10
2018-12-30T01:07:21.690Z,6.09
2018-12-30T01:08:21.670Z,6.04
2018-12-30T01:09:21.692Z,6.07
2018-12-30T01:10:21.651Z,6.06
2018-12-30T01:11:21.648Z,6.10
2018-12-30T01:12:21.630Z,6.09
2018-12-30T01:13:21.624Z,6.04
2018-12-30T01:14:21.611Z,6.14
2018-12-30T01:15:21.619Z,6.14
2018-12-30T01:16:21.578Z,6.14
2018-12-30T01:17:21.576Z,6.18
2018-12-30T01:18:21.560Z,6.14
2018-12-30T01:19:21.564Z,6.21
2018-12-30T01:20:21.559Z,6.21
2018-12-30T01:21:25.113Z,6.19
2018-12-30T01:22:21.513Z,6.21
2018-12-30T01:23:21.520Z,6.21
2018-12-30T01:24:21.503Z,6.26
2018-12-30T01:25:21.522Z,6.19
2018-12-30T01:26:21.479Z,6.28
2018-12-30T01:27:21.461Z,6.22
2018-12-30T01:28:21.454Z,6.30
2018-12-30T01:29:21.533Z,6.29
2018-12-30T01:30:21.436Z,6.18
2018-12-30T01:31:21.449Z,6.38
2018-12-30T01:32:21.425Z,6.26
2018-12-30T01:33:21.412Z,6.35
2018-12-30T01:34:21.396Z,6.35
2018-12-30T01:35:21.381Z,6.35
2018-12-30T01:36:21.396Z,6.36
2018-12-30T01:37:21.370Z,6.40
2018-12-30T01:38:21.352Z,6.40
2018-12-30T01:39:21.335Z,6.35
2018-12-30T01:40:21.341Z,6.48
2018-12-30T01:41:21.309Z,6.43
2018-12-30T01:42:21.324Z,6.44
2018-12-30T01:43:21.318Z,6.43
2018-12-30T01:44:21.288Z,6.47
2018-12-30T01:45:21.311Z,6.32
2018-12-30T01:46:21.264Z,6.44
2018-12-30T01:47:21.239Z,6.47
2018-12-30T01:48:21.246Z,6.48
2018-12-30T01:49:21.223Z,6.41
2018-12-30T01:50:21.208Z,6.46
2018-12-30T01:51:21.224Z,6.48
2018-12-30T01:52:21.195Z,6.40
2018-12-30T01:53:21.171Z,6.47
2018-12-30T01:54:21.164Z,6.46
2018-12-30T01:55:21.160Z,6.58
2018-12-30T01:56:21.167Z,6.53
2018-12-30T01:57:21.139Z,6.41
2018-12-30T01:58:21.171Z,6.43
2018-12-30T01:59:21.111Z,6.62
2018-12-30T02:00:21.110Z,6.54
2018-12-30T02:01:21.122Z,6.48
2018-12-30T02:02:22.037Z,6.48
2018-12-30T02:03:21.112Z,6.50
2018-12-30T02:04:21.068Z,6.56
2018-12-30T02:05:21.075Z,6.50
2018-12-30T02:06:21.042Z,6.56
2018-12-30T02:07:21.033Z,6.48
2018-12-30T02:08:21.019Z,6.56
2018-12-30T02:09:21.368Z,6.50
2018-12-30T02:10:20.999Z,6.61
2018-12-30T02:11:20.972Z,6.48
2018-12-30T02:12:20.983Z,6.51
2018-12-30T02:13:20.955Z,6.61
2018-12-30T02:14:20.963Z,6.59
2018-12-30T02:15:20.947Z,6.61
2018-12-30T02:16:20.929Z,6.61
2018-12-30T02:17:20.917Z,6.56
2018-12-30T02:18:20.919Z,6.58
2018-12-30T02:19:20.921Z,6.54
2018-12-30T02:20:20.881Z,6.59
2018-12-30T02:21:20.865Z,6.63
2018-12-30T02:22:20.865Z,6.56
2018-12-30T02:23:20.857Z,6.58
2018-12-30T02:24:20.850Z,6.63
2018-12-30T02:25:20.841Z,6.58
2018-12-30T02:26:20.843Z,6.58
2018-12-30T02:27:20.812Z,6.59
2018-12-30T02:28:20.802Z,6.63
2018-12-30T02:29:20.841Z,6.63
2018-12-30T02:30:20.783Z,6.69
2018-12-30T02:31:20.765Z,6.66
2018-12-30T02:32:20.748Z,6.71
2018-12-30T02:33:20.772Z,6.71
2018-12-30T02:34:21.071Z,6.63
2018-12-30T02:35:20.740Z,6.66
2018-12-30T02:36:20.713Z,6.66
2018-12-30T02:37:20.720Z,6.69
2018-12-30T02:38:20.699Z,6.65
2018-12-30T02:39:20.724Z,6.68
2018-12-30T02:40:20.687Z,6.71
2018-12-30T02:41:20.661Z,6.66
2018-12-30T02:42:20.646Z,6.76
2018-12-30T02:43:20.633Z,6.76
2018-12-30T02:44:20.635Z,6.72
2018-12-30T02:45:20.599Z,6.73
2018-12-30T02:46:20.667Z,6.73
2018-12-30T02:47:20.592Z,6.68
2018-12-30T02:48:20.587Z,6.72
2018-12-30T02:49:20.574Z,6.79
2018-12-30T02:50:20.580Z,6.79
2018-12-30T02:51:20.545Z,6.84
2018-12-30T02:52:20.533Z,6.77
2018-12-30T02:53:20.536Z,6.81
2018-12-30T02:54:20.514Z,6.77
2018-12-30T02:55:20.523Z,6.79
2018-12-30T02:56:20.495Z,6.79
2018-12-30T02:57:20.470Z,6.87
2018-12-30T02:58:20.473Z,6.86
2018-12-30T02:59:20.458Z,6.81
2018-12-30T03:00:20.465Z,6.80
2018-12-30T03:01:20.444Z,6.90
2018-12-30T03:02:20.428Z,6.86
2018-12-30T03:03:20.415Z,6.86
2018-12-30T03:04:20.404Z,6.86
2018-12-30T03:05:20.410Z,6.86
2018-12-30T03:06:20.390Z,6.86
2018-12-30T03:07:20.375Z,6.79
2018-12-30T03:08:20.360Z,6.84
2018-12-30T03:09:20.351Z,6.87
2018-12-30T03:10:20.367Z,6.89
2018-12-30T03:11:20.339Z,6.91
2018-12-30T03:12:20.360Z,6.95
2018-12-30T03:13:20.310Z,6.95
2018-12-30T03:14:20.311Z,6.97
2018-12-30T03:15:20.273Z,6.94
2018-12-30T03:16:20.291Z,6.95
2018-12-30T03:17:20.267Z,6.87
2018-12-30T03:18:20.243Z,6.97
2018-12-30T03:19:20.246Z,6.94
2018-12-30T03:20:20.228Z,6.91
2018-12-30T03:21:20.264Z,6.95
2018-12-30T03:22:20.210Z,6.98
2018-12-30T03:23:20.191Z,6.97
2018-12-30T03:24:20.175Z,6.97
2018-12-30T03:25:20.163Z,6.98
2018-12-30T03:26:20.153Z,6.98
2018-12-30T03:27:20.176Z,7.01
2018-12-30T03:28:20.143Z,7.05
2018-12-30T03:29:20.123Z,7.05
2018-12-30T03:30:20.164Z,7.02
2018-12-30T03:31:20.119Z,6.99
2018-12-30T03:32:20.136Z,7.05
2018-12-30T03:33:20.099Z,7.12
2018-12-30T03:34:20.081Z,7.13
2018-12-30T03:35:20.070Z,7.13
2018-12-30T03:36:20.055Z,7.12
2018-12-30T03:37:20.030Z,7.16
2018-12-30T03:38:20.077Z,7.17
2018-12-30T03:39:20.122Z,7.17
2018-12-30T03:40:20.012Z,7.15
2018-12-30T03:41:19.994Z,7.13
2018-12-30T03:42:20.387Z,7.15
2018-12-30T03:43:19.987Z,7.15
2018-12-30T03:44:19.953Z,7.17
2018-12-30T03:45:19.962Z,7.13
2018-12-30T03:46:19.943Z,7.17
2018-12-30T03:47:19.921Z,7.22
2018-12-30T03:48:19.930Z,7.17
2018-12-30T03:49:19.896Z,7.20
2018-12-30T03:50:19.886Z,7.24
2018-12-30T03:51:19.887Z,7.24
2018-12-30T03:52:19.885Z,7.24
2018-12-30T03:53:19.893Z,7.20
2018-12-30T03:54:19.857Z,7.29
2018-12-30T03:55:19.838Z,7.23
2018-12-30T03:56:19.825Z,7.29
2018-12-30T03:57:19.807Z,7.31
2018-12-30T03:58:19.798Z,7.23
2018-12-30T03:59:19.822Z,7.24
2018-12-30T04:00:19.785Z,7.31
2018-12-30T04:01:19.771Z,7.29
2018-12-30T04:02:19.759Z,7.37
2018-12-30T04:03:19.759Z,7.32
2018-12-30T04:04:19.779Z,7.37
2018-12-30T04:05:19.743Z,7.37
2018-12-30T04:06:19.719Z,7.37
2018-12-30T04:07:19.720Z,7.37
2018-12-30T04:08:19.689Z,7.37
2018-12-30T04:09:19.678Z,7.38
2018-12-30T04:10:19.706Z,7.34
2018-12-30T04:11:19.672Z,7.34
2018-12-30T04:12:19.656Z,7.38
2018-12-30T04:13:19.665Z,7.35
2018-12-30T04:14:19.636Z,7.47
2018-12-30T04:15:19.631Z,7.32
2018-12-30T04:16:19.615Z,7.50
2018-12-30T04:17:19.607Z,7.44
2018-12-30T04:18:19.589Z,7.41
2018-12-30T04:19:19.569Z,7.45
2018-12-30T04:20:19.580Z,7.50
2018-12-30T04:21:19.544Z,7.42
2018-12-30T04:22:19.542Z,7.45
2018-12-30T04:23:19.529Z,7.52
2018-12-30T04:24:19.529Z,7.49
2018-12-30T04:25:19.524Z,7.59
2018-12-30T04:26:19.502Z,7.53
2018-12-30T04:27:19.483Z,7.47
2018-12-30T04:28:19.472Z,7.53
2018-12-30T04:29:19.456Z,7.56
2018-12-30T04:30:19.489Z,7.52
2018-12-30T04:31:19.444Z,7.58
2018-12-30T04:32:19.440Z,7.56
2018-12-30T04:33:19.418Z,7.50
2018-12-30T04:34:19.409Z,7.59
2018-12-30T04:35:19.432Z,7.52
2018-12-30T04:36:19.401Z,7.55
2018-12-30T04:37:19.373Z,7.60
2018-12-30T04:38:19.379Z,7.63
2018-12-30T04:39:19.348Z,7.63
2018-12-30T04:40:19.328Z,7.53
2018-12-30T04:41:19.341Z,7.60
2018-12-30T04:42:19.314Z,7.59
2018-12-30T04:43:19.699Z,7.66
2018-12-30T04:44:19.295Z,7.60
2018-12-30T04:45:19.287Z,7.63
2018-12-30T04:46:19.284Z,7.63
2018-12-30T04:47:19.259Z,7.67
2018-12-30T04:48:19.268Z,7.67
2018-12-30T04:49:19.253Z,7.62
2018-12-30T04:50:19.248Z,7.66
2018-12-30T04:51:19.228Z,7.66
2018-12-30T04:52:25.625Z,7.62
2018-12-30T04:53:20.217Z,7.66
2018-12-30T04:54:19.185Z,7.66
2018-12-30T04:55:19.185Z,7.69
2018-12-30T04:56:19.167Z,7.66
2018-12-30T04:57:19.163Z,7.63
2018-12-30T04:58:19.171Z,7.71
2018-12-30T04:59:19.125Z,7.63
2018-12-30T05:00:19.120Z,7.63
2018-12-30T05:01:19.119Z,7.77
2018-12-30T05:02:19.093Z,7.77
2018-12-30T05:03:19.120Z,7.75
2018-12-30T05:04:19.074Z,7.75
2018-12-30T05:05:19.063Z,7.71
2018-12-30T05:06:19.055Z,7.74
2018-12-30T05:07:19.057Z,7.72
2018-12-30T05:08:19.035Z,7.71
2018-12-30T05:09:19.044Z,7.75
2018-12-30T05:10:19.022Z,7.75
2018-12-30T05:11:18.995Z,7.74
2018-12-30T05:12:18.986Z,7.72
2018-12-30T05:13:18.981Z,7.71
2018-12-30T05:14:18.988Z,7.79
2018-12-30T05:15:18.956Z,7.67
2018-12-30T05:16:18.950Z,7.75
2018-12-30T05:17:18.941Z,7.69
2018-12-30T05:18:18.929Z,7.77
2018-12-30T05:19:18.924Z,7.74
2018-12-30T05:20:18.895Z,7.77
2018-12-30T05:21:18.907Z,7.78
2018-12-30T05:22:18.877Z,7.71
2018-12-30T05:23:18.868Z,7.66
2018-12-30T05:24:18.882Z,7.74
2018-12-30T05:25:18.840Z,7.75
2018-12-30T05:26:18.830Z,7.63
2018-12-30T05:27:18.830Z,7.67
2018-12-30T05:28:18.819Z,7.66
2018-12-30T05:29:18.799Z,7.63
2018-12-30T05:30:18.818Z,7.63
2018-12-30T05:31:18.780Z,7.62
2018-12-30T05:32:18.769Z,7.55
2018-12-30T05:33:18.758Z,7.58
2018-12-30T05:34:18.744Z,7.50
2018-12-30T05:35:19.515Z,7.60
2018-12-30T05:36:18.728Z,7.56
2018-12-30T05:37:18.711Z,7.49
2018-12-30T05:38:18.695Z,7.52
2018-12-30T05:39:18.700Z,7.41
2018-12-30T05:40:18.700Z,7.37
2018-12-30T05:41:18.698Z,7.49
2018-12-30T05:42:18.669Z,7.49
2018-12-30T05:43:18.648Z,7.38
2018-12-30T05:44:18.643Z,7.40
2018-12-30T05:45:18.624Z,7.37
2018-12-30T05:46:18.628Z,7.32
2018-12-30T05:47:18.607Z,7.29
2018-12-30T05:48:18.595Z,7.31
2018-12-30T05:49:18.583Z,7.22
2018-12-30T05:50:18.569Z,7.22
2018-12-30T05:51:18.593Z,7.16
2018-12-30T05:52:18.538Z,7.12
2018-12-30T05:53:18.544Z,7.16
2018-12-30T05:54:18.542Z,7.15
2018-12-30T05:55:18.511Z,7.12
2018-12-30T05:56:18.513Z,7.13
2018-12-30T05:57:18.488Z,7.09
2018-12-30T05:58:18.474Z,7.15
2018-12-30T05:59:18.474Z,7.09
2018-12-30T06:00:18.463Z,7.02
2018-12-30T06:01:18.468Z,7.01
2018-12-30T06:02:18.435Z,7.05
2018-12-30T06:03:18.442Z,6.97
2018-12-30T06:04:18.407Z,7.01
2018-12-30T06:05:18.404Z,6.95
2018-12-30T06:06:18.390Z,6.97
2018-12-30T06:07:18.478Z,6.94
2018-12-30T06:08:18.398Z,6.91
2018-12-30T06:09:18.350Z,6.90
2018-12-30T06:10:18.348Z,6.89
2018-12-30T06:11:18.347Z,6.97
2018-12-30T06:12:18.334Z,6.94
2018-12-30T06:13:18.334Z,6.94
2018-12-30T06:14:18.304Z,6.95
2018-12-30T06:15:18.281Z,6.89
2018-12-30T06:16:18.289Z,6.83
2018-12-30T06:17:18.259Z,6.84
2018-12-30T06:18:18.274Z,6.89
2018-12-30T06:19:18.289Z,6.77
2018-12-30T06:20:18.235Z,6.84
2018-12-30T06:21:18.226Z,6.79
2018-12-30T06:22:18.216Z,6.73
2018-12-30T06:23:18.198Z,6.71
2018-12-30T06:24:18.210Z,6.77
2018-12-30T06:25:18.179Z,6.66
2018-12-30T06:26:18.176Z,6.76
2018-12-30T06:27:18.150Z,6.66
2018-12-30T06:28:18.149Z,6.72
2018-12-30T06:29:18.142Z,6.73
2018-12-30T06:30:18.149Z,6.69
2018-12-30T06:31:18.139Z,6.65
2018-12-30T06:32:18.115Z,6.66
2018-12-30T06:33:18.098Z,6.66
2018-12-30T06:34:18.095Z,6.65
2018-12-30T06:35:18.098Z,6.61
2018-12-30T06:36:18.081Z,6.58
2018-12-30T06:37:18.047Z,6.59
2018-12-30T06:38:18.033Z,6.61
2018-12-30T06:39:18.022Z,6.62
2018-12-30T06:40:18.017Z,6.58
2018-12-30T06:41:18.040Z,6.58
2018-12-30T06:42:18.009Z,6.59
2018-12-30T06:43:17.986Z,6.54
2018-12-30T06:44:17.974Z,6.47
2018-12-30T06:45:17.967Z,6.59
2018-12-30T06:46:17.979Z,6.56
2018-12-30T06:47:17.936Z,6.50
2018-12-30T06:48:17.929Z,6.54
2018-12-30T06:49:17.918Z,6.46
2018-12-30T06:50:17.905Z,6.47
2018-12-30T06:51:17.905Z,6.46
2018-12-30T06:52:17.918Z,6.48
2018-12-30T06:53:17.879Z,6.50
2018-12-30T06:54:17.876Z,6.56
2018-12-30T06:55:17.845Z,6.46
2018-12-30T06:56:17.840Z,6.54
2018-12-30T06:57:17.848Z,6.47
2018-12-30T06:58:17.821Z,6.47
2018-12-30T06:59:17.805Z,6.44
2018-12-30T07:00:17.796Z,6.41
2018-12-30T07:01:17.784Z,6.38
2018-12-30T07:02:17.797Z,6.35
2018-12-30T07:03:17.785Z,6.44
2018-12-30T07:04:17.761Z,6.38
2018-12-30T07:05:17.748Z,6.36
2018-12-30T07:06:17.733Z,6.47
2018-12-30T07:07:17.711Z,6.35
2018-12-30T07:08:17.718Z,6.30
2018-12-30T07:09:17.687Z,6.35
2018-12-30T07:10:17.682Z,6.32
2018-12-30T07:11:17.681Z,6.18
2018-12-30T07:12:17.697Z,6.26
2018-12-30T07:13:17.657Z,6.38
2018-12-30T07:14:17.644Z,6.32
2018-12-30T07:15:17.637Z,6.19
2018-12-30T07:16:17.628Z,6.19
2018-12-30T07:17:17.645Z,6.14
2018-12-30T07:18:17.656Z,6.16
2018-12-30T07:19:17.583Z,6.06
2018-12-30T07:20:17.573Z,6.06
2018-12-30T07:21:17.559Z,6.11
2018-12-30T07:22:17.570Z,6.07
2018-12-30T07:23:17.546Z,6.09
2018-12-30T07:24:17.536Z,6.06
2018-12-30T07:25:17.529Z,6.10
2018-12-30T07:26:17.522Z,6.09
2018-12-30T07:27:18.441Z,6.06
2018-12-30T07:28:17.481Z,5.98
2018-12-30T07:29:17.485Z,6.03
2018-12-30T07:30:17.478Z,5.96
2018-12-30T07:31:17.454Z,6.00
2018-12-30T07:32:17.463Z,5.96
2018-12-30T07:33:17.462Z,5.83
2018-12-30T07:34:17.423Z,5.93
2018-12-30T07:35:17.424Z,5.85
2018-12-30T07:36:17.413Z,5.85
2018-12-30T07:37:17.399Z,5.85
2018-12-30T07:38:17.407Z,5.81
2018-12-30T07:39:17.372Z,5.81
2018-12-30T07:40:17.355Z,5.74
2018-12-30T07:41:17.354Z,5.75
2018-12-30T07:42:17.359Z,5.81
2018-12-30T07:43:17.329Z,5.75
2018-12-30T07:44:17.343Z,5.77
2018-12-30T07:45:17.406Z,5.67
2018-12-30T07:46:17.297Z,5.68
2018-12-30T07:47:17.587Z,5.73
2018-12-30T07:48:17.283Z,5.67
2018-12-30T07:49:17.280Z,5.60
2018-12-30T07:50:17.260Z,5.63
2018-12-30T07:51:17.239Z,5.68
2018-12-30T07:52:17.243Z,5.64
2018-12-30T07:53:17.217Z,5.63
2018-12-30T07:54:17.227Z,5.66
2018-12-30T07:55:17.210Z,5.66
2018-12-30T07:56:17.191Z,5.57
2018-12-30T07:57:17.185Z,5.57
2018-12-30T07:58:17.205Z,5.64
2018-12-30T07:59:17.151Z,5.57
2018-12-30T08:00:17.146Z,5.56
2018-12-30T08:01:17.143Z,5.56
2018-12-30T08:02:17.125Z,5.59
2018-12-30T08:03:17.103Z,5.56
2018-12-30T08:04:17.106Z,5.55
2018-12-30T08:05:17.086Z,5.55
2018-12-30T08:06:17.076Z,5.53
2018-12-30T08:07:17.081Z,5.53
2018-12-30T08:08:17.060Z,5.59
2018-12-30T08:09:17.081Z,5.64
2018-12-30T08:10:17.040Z,5.60
2018-12-30T08:11:17.020Z,5.56
2018-12-30T08:12:17.006Z,5.56
2018-12-30T08:13:16.993Z,5.64
2018-12-30T08:14:17.000Z,5.57
2018-12-30T08:15:17.000Z,5.63
2018-12-30T08:16:16.969Z,5.60
2018-12-30T08:17:16.951Z,5.52
2018-12-30T08:18:16.941Z,5.59
2018-12-30T08:19:16.935Z,5.57
2018-12-30T08:20:16.947Z,5.57
2018-12-30T08:21:16.921Z,5.56
2018-12-30T08:22:16.914Z,5.55
2018-12-30T08:23:21.393Z,5.59
2018-12-30T08:24:17.883Z,5.50
2018-12-30T08:25:16.891Z,5.49
2018-12-30T08:26:16.858Z,5.53
2018-12-30T08:27:16.891Z,5.48
2018-12-30T08:28:24.806Z,5.49
2018-12-30T08:29:17.834Z,5.59
2018-12-30T08:30:16.851Z,5.55
2018-12-30T08:31:16.802Z,5.56
2018-12-30T08:32:16.796Z,5.56
2018-12-30T08:33:16.790Z,5.56
2018-12-30T08:34:16.776Z,5.55
2018-12-30T08:35:16.760Z,5.60
2018-12-30T08:36:16.769Z,5.63
2018-12-30T08:37:16.739Z,5.57
2018-12-30T08:38:16.723Z,5.56
2018-12-30T08:39:16.734Z,5.63
2018-12-30T08:40:16.733Z,5.59
2018-12-30T08:41:16.699Z,5.60
2018-12-30T08:42:16.686Z,5.64
2018-12-30T08:43:17.350Z,5.60
2018-12-30T08:44:16.669Z,5.63
2018-12-30T08:45:16.685Z,5.70
2018-12-30T08:46:16.652Z,5.60
2018-12-30T08:47:16.626Z,5.63
2018-12-30T08:48:16.619Z,5.67
2018-12-30T08:49:16.616Z,5.68
2018-12-30T08:50:16.642Z,5.63
2018-12-30T08:51:16.575Z,5.63
2018-12-30T08:52:16.570Z,5.68
2018-12-30T08:53:16.561Z,5.67
2018-12-30T08:54:16.547Z,5.71
2018-12-30T08:55:16.555Z,5.74
2018-12-30T08:56:16.552Z,5.78
2018-12-30T08:57:16.530Z,5.68
2018-12-30T08:58:16.530Z,5.71
2018-12-30T08:59:16.502Z,5.75
2018-12-30T09:00:16.482Z,5.71
2018-12-30T09:01:16.495Z,5.82
2018-12-30T09:02:16.462Z,5.71
2018-12-30T09:03:16.464Z,5.75
2018-12-30T09:04:16.474Z,5.73
2018-12-30T09:05:16.439Z,5.77
2018-12-30T09:06:16.419Z,5.77
2018-12-30T09:07:16.426Z,5.77
2018-12-30T09:08:16.403Z,5.86
2018-12-30T09:09:16.403Z,5.83
2018-12-30T09:10:16.406Z,5.77
2018-12-30T09:11:16.359Z,5.77
2018-12-30T09:12:16.358Z,5.81
2018-12-30T09:13:16.362Z,5.86
2018-12-30T09:14:16.334Z,5.82
2018-12-30T09:15:16.351Z,5.89
2018-12-30T09:16:16.354Z,5.91
2018-12-30T09:17:16.313Z,5.85
2018-12-30T09:18:16.308Z,5.95
2018-12-30T09:19:16.289Z,5.92
2018-12-30T09:20:16.283Z,5.89
2018-12-30T09:21:16.271Z,6.00
2018-12-30T09:22:16.282Z,5.93
2018-12-30T09:23:16.240Z,5.86
2018-12-30T09:24:16.231Z,5.91
2018-12-30T09:25:16.213Z,5.89
2018-12-30T09:26:16.204Z,5.85
2018-12-30T09:27:16.224Z,5.86
2018-12-30T09:28:16.197Z,5.88
2018-12-30T09:29:16.179Z,5.88
2018-12-30T09:30:16.178Z,5.83
2018-12-30T09:31:16.157Z,6.03
2018-12-30T09:32:16.177Z,5.92
2018-12-30T09:33:16.138Z,5.93
2018-12-30T09:34:16.117Z,5.91
2018-12-30T09:35:16.131Z,6.00
2018-12-30T09:36:16.110Z,5.95
2018-12-30T09:37:16.117Z,5.98
2018-12-30T09:38:16.077Z,5.92
2018-12-30T09:39:16.071Z,5.95
2018-12-30T09:40:16.102Z,5.95
2018-12-30T09:41:16.045Z,6.00
2018-12-30T09:42:16.042Z,6.01
2018-12-30T09:43:16.032Z,6.00
2018-12-30T09:44:16.010Z,5.95
2018-12-30T09:45:16.001Z,6.06
2018-12-30T09:46:15.991Z,6.01
2018-12-30T09:47:15.981Z,5.92
2018-12-30T09:48:15.988Z,5.98
2018-12-30T09:49:15.991Z,6.01
2018-12-30T09:50:15.970Z,6.06
2018-12-30T09:51:15.933Z,6.07
2018-12-30T09:52:15.926Z,6.13
2018-12-30T09:53:15.921Z,6.13
2018-12-30T09:54:15.908Z,6.19
2018-12-30T09:55:15.903Z,6.22
2018-12-30T09:56:15.872Z,6.25
2018-12-30T09:57:15.864Z,6.33
2018-12-30T09:58:15.882Z,6.30
2018-12-30T09:59:15.859Z,6.38
2018-12-30T10:00:15.865Z,6.46
2018-12-30T10:01:15.852Z,6.41
2018-12-30T10:02:15.824Z,6.53
2018-12-30T10:03:15.814Z,6.40
2018-12-30T10:04:15.820Z,6.53
2018-12-30T10:05:15.802Z,6.53
2018-12-30T10:06:15.772Z,6.59
2018-12-30T10:07:15.765Z,6.61
2018-12-30T10:08:15.764Z,6.69
2018-12-30T10:09:15.743Z,6.79
2018-12-30T10:10:15.747Z,6.73
2018-12-30T10:11:15.736Z,6.68
2018-12-30T10:12:15.712Z,6.62
2018-12-30T10:13:15.703Z,6.59
2018-12-30T10:14:15.697Z,6.61
2018-12-30T10:15:15.670Z,6.63
2018-12-30T10:16:15.670Z,6.58
2018-12-30T10:17:15.648Z,6.54
2018-12-30T10:18:15.632Z,6.63
2018-12-30T10:19:15.636Z,6.44
2018-12-30T10:20:15.615Z,6.59
2018-12-30T10:21:15.630Z,6.61
2018-12-30T10:22:15.599Z,6.46
2018-12-30T10:23:15.595Z,6.56
2018-12-30T10:24:15.566Z,6.62
2018-12-30T10:25:15.568Z,6.63
2018-12-30T10:26:15.582Z,6.56
2018-12-30T10:27:15.535Z,6.71
2018-12-30T10:28:15.540Z,6.65
2018-12-30T10:29:15.518Z,6.65
2018-12-30T10:30:15.500Z,6.68
2018-12-30T10:31:15.518Z,6.80
2018-12-30T10:32:15.490Z,6.80
2018-12-30T10:33:15.482Z,6.81
2018-12-30T10:34:15.478Z,6.84
2018-12-30T10:35:15.458Z,6.89
2018-12-30T10:36:15.455Z,6.91
2018-12-30T10:37:15.430Z,6.87
2018-12-30T10:38:15.453Z,6.94
2018-12-30T10:39:15.414Z,6.94
2018-12-30T10:40:15.401Z,6.90
2018-12-30T10:41:15.403Z,6.90
2018-12-30T10:42:15.376Z,7.02
2018-12-30T10:43:15.370Z,7.05
2018-12-30T10:44:15.357Z,7.16
2018-12-30T10:45:15.360Z,7.19
2018-12-30T10:46:15.386Z,7.13
2018-12-30T10:47:15.311Z,7.13
2018-12-30T10:48:15.307Z,7.16
2018-12-30T10:49:15.290Z,7.15
2018-12-30T10:50:15.282Z,7.12
2018-12-30T10:51:15.277Z,7.13
2018-12-30T10:52:15.284Z,7.13
2018-12-30T10:53:15.320Z,7.02
2018-12-30T10:54:15.249Z,6.97
2018-12-30T10:55:15.223Z,7.17
2018-12-30T10:56:15.220Z,7.17
2018-12-30T10:57:15.229Z,7.16
2018-12-30T10:58:15.210Z,7.15
2018-12-30T10:59:15.180Z,7.20
2018-12-30T11:00:15.174Z,7.24
2018-12-30T11:01:15.169Z,7.27
2018-12-30T11:02:15.207Z,7.40
2018-12-30T11:03:15.227Z,7.47
2018-12-30T11:04:15.137Z,7.44
2018-12-30T11:05:15.122Z,7.41
2018-12-30T11:06:15.119Z,7.60
2018-12-30T11:07:15.093Z,7.66
2018-12-30T11:08:15.099Z,7.50
2018-12-30T11:09:15.069Z,7.42
2018-12-30T11:10:15.065Z,7.40
2018-12-30T11:11:15.060Z,7.32
2018-12-30T11:12:15.067Z,7.37
2018-12-30T11:13:15.034Z,7.34
2018-12-30T11:14:15.016Z,7.34
2018-12-30T11:15:15.019Z,7.37
2018-12-30T11:16:15.000Z,7.40
2018-12-30T11:17:15.011Z,7.38
2018-12-30T11:18:14.985Z,7.32
2018-12-30T11:19:16.365Z,7.29
2018-12-30T11:20:14.949Z,7.34
2018-12-30T11:21:14.946Z,7.32
2018-12-30T11:22:14.951Z,7.31
2018-12-30T11:23:14.941Z,7.35
2018-12-30T11:24:14.916Z,7.41
2018-12-30T11:25:14.922Z,7.37
2018-12-30T11:26:14.902Z,7.38
2018-12-30T11:27:14.899Z,7.35
2018-12-30T11:28:14.884Z,7.34
2018-12-30T11:29:14.858Z,7.37
2018-12-30T11:30:14.862Z,7.23
2018-12-30T11:31:14.833Z,7.23
2018-12-30T11:32:14.827Z,7.24
2018-12-30T11:33:14.838Z,7.23
2018-12-30T11:34:14.794Z,7.23
2018-12-30T11:35:14.793Z,7.19
2018-12-30T11:36:14.802Z,7.24
2018-12-30T11:37:14.777Z,7.23
2018-12-30T11:38:14.759Z,7.22
2018-12-30T11:39:14.779Z,7.27
2018-12-30T11:40:14.730Z,7.27
2018-12-30T11:41:14.729Z,7.27
2018-12-30T11:42:14.726Z,7.24
2018-12-30T11:43:14.713Z,7.24
2018-12-30T11:44:14.711Z,7.22
2018-12-30T11:45:14.704Z,7.24
2018-12-30T11:46:14.668Z,7.27
2018-12-30T11:47:14.665Z,7.20
2018-12-30T11:48:14.649Z,7.17
2018-12-30T11:49:14.639Z,7.13
2018-12-30T11:50:14.646Z,7.12
2018-12-30T11:51:15.577Z,7.15
2018-12-30T11:52:14.596Z,7.15
2018-12-30T11:53:15.113Z,7.12
2018-12-30T11:54:16.498Z,7.19
2018-12-30T11:55:14.588Z,7.13
2018-12-30T11:56:14.574Z,7.13
2018-12-30T11:57:14.560Z,7.22
2018-12-30T11:58:14.539Z,7.26
2018-12-30T11:59:14.543Z,7.29
2018-12-30T12:00:14.547Z,7.34
2018-12-30T12:01:14.520Z,7.29
2018-12-30T12:02:14.502Z,7.31
2018-12-30T12:03:14.475Z,7.34
2018-12-30T12:04:14.470Z,7.26
2018-12-30T12:05:14.472Z,7.37
2018-12-30T12:06:14.451Z,7.34
2018-12-30T12:07:14.465Z,7.44
2018-12-30T12:08:14.441Z,7.38
2018-12-30T12:09:14.417Z,7.44
2018-12-30T12:10:14.422Z,7.44
2018-12-30T12:11:14.422Z,7.52
2018-12-30T12:12:14.382Z,7.49
2018-12-30T12:13:14.366Z,7.55
2018-12-30T12:14:14.355Z,7.53
2018-12-30T12:15:14.354Z,7.52
2018-12-30T12:16:14.343Z,7.50
2018-12-30T12:17:14.354Z,7.50
2018-12-30T12:18:14.308Z,7.50
2018-12-30T12:19:14.308Z,7.49
2018-12-30T12:20:14.300Z,7.44
2018-12-30T12:21:14.292Z,7.41
2018-12-30T12:22:14.296Z,7.40
2018-12-30T12:23:14.261Z,7.52
2018-12-30T12:24:14.256Z,7.47
2018-12-30T12:25:14.238Z,7.50
2018-12-30T12:26:14.230Z,7.56
2018-12-30T12:27:14.240Z,7.62
2018-12-30T12:28:14.235Z,7.60
2018-12-30T12:29:14.200Z,7.55
2018-12-30T12:30:14.177Z,7.55
2018-12-30T12:31:14.164Z,7.56
2018-12-30T12:32:14.157Z,7.50
2018-12-30T12:33:14.156Z,7.67
2018-12-30T12:34:14.163Z,7.60
2018-12-30T12:35:14.134Z,7.69
2018-12-30T12:36:14.111Z,7.66
2018-12-30T12:37:14.096Z,7.67
2018-12-30T12:38:14.091Z,7.66
2018-12-30T12:39:14.104Z,7.53
2018-12-30T12:40:14.072Z,7.62
2018-12-30T12:41:14.072Z,7.67
2018-12-30T12:42:14.053Z,7.63
2018-12-30T12:43:14.057Z,7.66
2018-12-30T12:44:14.059Z,7.62
2018-12-30T12:45:14.015Z,7.66
2018-12-30T12:46:14.005Z,7.62
2018-12-30T12:47:14.010Z,7.66
2018-12-30T12:48:14.005Z,7.62
2018-12-30T12:49:13.967Z,7.62
2018-12-30T12:50:13.995Z,7.71
2018-12-30T12:51:13.961Z,7.66
2018-12-30T12:52:14.028Z,7.67
2018-12-30T12:53:13.937Z,7.72
2018-12-30T12:54:13.926Z,7.72
2018-12-30T12:55:13.913Z,7.75
2018-12-30T12:56:13.897Z,7.67
2018-12-30T12:57:13.885Z,7.78
2018-12-30T12:58:13.873Z,7.71
2018-12-30T12:59:13.939Z,7.77
2018-12-30T13:00:13.876Z,7.74
2018-12-30T13:01:13.846Z,7.74
2018-12-30T13:02:13.833Z,7.71
2018-12-30T13:03:13.814Z,7.67
2018-12-30T13:04:13.799Z,7.72
2018-12-30T13:05:13.826Z,7.67
2018-12-30T13:06:13.790Z,7.66
2018-12-30T13:07:13.801Z,7.77
2018-12-30T13:08:13.761Z,7.74
2018-12-30T13:09:13.747Z,7.67
2018-12-30T13:10:13.737Z,7.74
2018-12-30T13:11:13.755Z,7.72
2018-12-30T13:12:13.729Z,7.75
2018-12-30T13:13:13.714Z,7.81
2018-12-30T13:14:13.710Z,7.79
2018-12-30T13:15:13.688Z,7.78
2018-12-30T13:16:13.693Z,7.74
2018-12-30T13:17:13.666Z,7.77
2018-12-30T13:18:13.668Z,7.71